Time;durP1;ratioP1;P1;durP2;ratioP2;P2;SDS_P1;SDS_P2;PMS_P1;PMS_P2;Temp;Humidity;BMP_temperature;BMP_pressure;BME280_temperature;BME280_humidity;BME280_pressure;Samples;Min_cycle;Max_cycle;Signal;HPM_P1;HPM_P2
2024/03/22 00:01:47;;;;;;;33.92;17.00;;;12.70;99.90;;;;;;4158068;28;20037;-63
2024/03/22 00:03:48;;;;;;;29.27;17.10;;;12.70;99.90;;;;;;4156443;28;20065;-66
2024/03/22 00:05:49;;;;;;;27.42;15.35;;;12.80;99.90;;;;;;4158141;28;20052;-66
2024/03/22 00:07:49;;;;;;;26.73;15.40;;;12.80;99.90;;;;;;4158425;28;20039;-66
2024/03/22 00:09:50;;;;;;;29.45;17.25;;;12.70;99.90;;;;;;4158759;28;20053;-66
2024/03/22 00:11:50;;;;;;;26.92;16.08;;;12.70;99.90;;;;;;4155918;28;20126;-66
2024/03/22 00:13:51;;;;;;;29.15;16.50;;;12.70;99.90;;;;;;4158848;28;20065;-66
2024/03/22 00:15:51;;;;;;;27.30;16.08;;;12.80;99.90;;;;;;4157924;28;20473;-66
2024/03/22 00:17:52;;;;;;;28.92;16.33;;;12.80;99.90;;;;;;4156412;28;20903;-66
2024/03/22 00:19:53;;;;;;;27.65;16.10;;;12.80;99.90;;;;;;4155692;28;20502;-66
2024/03/22 00:21:53;;;;;;;28.45;16.45;;;12.70;99.90;;;;;;4157209;28;20338;-66
2024/03/22 00:23:54;;;;;;;31.25;16.75;;;12.70;99.90;;;;;;4159383;28;20436;-66
2024/03/22 00:25:54;;;;;;;32.35;17.58;;;12.70;99.90;;;;;;4156678;28;20037;-66
2024/03/22 00:27:55;;;;;;;28.77;16.85;;;12.70;99.90;;;;;;4150699;28;20133;-66
2024/03/22 00:29:56;;;;;;;27.83;16.23;;;12.70;99.90;;;;;;4154158;28;20041;-66
2024/03/22 00:31:56;;;;;;;34.55;17.75;;;12.70;99.90;;;;;;4156965;28;20049;-67
2024/03/22 00:33:57;;;;;;;28.85;16.42;;;12.70;99.90;;;;;;4159203;28;20041;-66
2024/03/22 00:35:58;;;;;;;27.00;16.92;;;12.70;99.90;;;;;;4157613;28;20048;-66
2024/03/22 00:37:58;;;;;;;27.95;16.45;;;12.70;99.90;;;;;;4155586;28;20038;-66
2024/03/22 00:39:59;;;;;;;28.95;16.80;;;12.70;99.90;;;;;;4156518;28;20040;-65
2024/03/22 00:41:59;;;;;;;26.63;16.85;;;12.70;99.90;;;;;;4154868;28;20580;-66
2024/03/22 00:44:00;;;;;;;28.35;16.25;;;12.70;99.90;;;;;;4158959;28;20029;-66
2024/03/22 00:46:02;;;;;;;31.33;17.33;;;12.80;99.90;;;;;;4158611;28;20338;-66
2024/03/22 00:48:03;;;;;;;29.88;17.73;;;12.70;99.90;;;;;;4156488;28;20044;-66
2024/03/22 00:50:04;;;;;;;30.08;16.95;;;12.70;99.90;;;;;;4159310;28;20026;-67
2024/03/22 00:52:05;;;;;;;30.17;17.75;;;12.70;99.90;;;;;;4156944;28;20958;-67
2024/03/22 00:54:05;;;;;;;26.77;15.45;;;12.70;99.90;;;;;;4156125;28;20033;-66
2024/03/22 00:56:06;;;;;;;32.67;17.38;;;12.70;99.90;;;;;;4157111;28;20119;-66
2024/03/22 00:58:07;;;;;;;29.77;16.98;;;12.70;99.90;;;;;;4157867;28;20105;-66
2024/03/22 01:00:09;;;;;;;35.22;18.98;;;12.70;99.90;;;;;;4156320;28;20383;-67
2024/03/22 01:02:09;;;;;;;31.45;18.58;;;12.70;99.90;;;;;;4155443;28;20125;-66
2024/03/22 01:04:10;;;;;;;28.73;16.80;;;12.70;99.90;;;;;;4154710;28;20038;-66
2024/03/22 01:06:11;;;;;;;29.92;17.45;;;12.70;99.90;;;;;;4155532;28;20489;-66
2024/03/22 01:08:11;;;;;;;29.45;16.98;;;12.70;99.90;;;;;;4157265;28;20030;-67
2024/03/22 01:10:12;;;;;;;26.73;15.98;;;12.70;99.90;;;;;;4160192;28;20095;-67
2024/03/22 01:12:13;;;;;;;24.83;15.65;;;12.80;99.90;;;;;;4158464;28;20041;-64
2024/03/22 01:14:13;;;;;;;28.80;16.70;;;12.80;99.90;;;;;;4160717;28;20371;-64
2024/03/22 01:16:14;;;;;;;27.70;16.35;;;12.80;99.90;;;;;;4161322;28;20081;-64
2024/03/22 01:18:14;;;;;;;29.67;16.58;;;12.80;99.90;;;;;;4161131;28;20579;-64
2024/03/22 01:20:15;;;;;;;29.30;16.90;;;12.80;99.90;;;;;;4160369;28;20038;-64
2024/03/22 01:22:17;;;;;;;29.45;16.65;;;12.80;99.90;;;;;;4160789;28;20041;-65
2024/03/22 01:24:18;;;;;;;35.10;18.02;;;12.80;99.90;;;;;;4161752;28;20064;-64
2024/03/22 01:26:19;;;;;;;32.95;17.73;;;12.70;99.90;;;;;;4160435;28;20045;-64
2024/03/22 01:28:19;;;;;;;27.98;17.25;;;12.70;99.90;;;;;;4160489;28;20124;-64
2024/03/22 01:30:20;;;;;;;33.88;18.77;;;12.80;99.90;;;;;;4156936;28;20045;-64
2024/03/22 01:32:20;;;;;;;31.17;17.50;;;12.70;99.90;;;;;;4159440;28;20128;-64
2024/03/22 01:34:21;;;;;;;35.35;20.33;;;12.70;99.90;;;;;;4160357;28;20164;-64
2024/03/22 01:36:21;;;;;;;35.13;19.60;;;12.70;99.90;;;;;;4160166;28;20122;-64
2024/03/22 01:38:22;;;;;;;35.25;20.10;;;12.70;99.90;;;;;;4158657;28;20038;-64
2024/03/22 01:40:22;;;;;;;31.63;17.70;;;12.60;99.90;;;;;;4156190;28;20091;-64
2024/03/22 01:42:23;;;;;;;30.50;17.67;;;12.60;99.90;;;;;;4160256;28;20046;-64
2024/03/22 01:44:28;;;;;;;31.45;18.40;;;12.70;99.90;;;;;;4160447;28;20116;-64
2024/03/22 01:46:28;;;;;;;31.77;18.75;;;12.60;99.90;;;;;;4159954;28;20041;-64
2024/03/22 01:48:29;;;;;;;29.73;17.38;;;12.60;99.90;;;;;;4159790;28;20047;-64
2024/03/22 01:50:30;;;;;;;38.53;19.33;;;12.60;99.90;;;;;;4159718;28;20438;-64
2024/03/22 01:52:31;;;;;;;32.90;17.58;;;12.70;99.90;;;;;;4158745;28;20444;-64
2024/03/22 01:54:31;;;;;;;33.60;18.48;;;12.70;99.90;;;;;;4160323;28;20033;-64
2024/03/22 01:56:32;;;;;;;31.60;18.40;;;12.70;99.90;;;;;;4160101;28;20109;-64
2024/03/22 01:58:33;;;;;;;34.17;18.45;;;12.70;99.90;;;;;;4161011;28;20037;-64
2024/03/22 02:00:34;;;;;;;34.35;19.15;;;12.70;99.90;;;;;;4159872;28;20069;-64
2024/03/22 02:02:34;;;;;;;33.05;18.92;;;12.60;99.90;;;;;;4159809;28;20079;-64
2024/03/22 02:04:35;;;;;;;34.20;19.40;;;12.70;99.90;;;;;;4160797;28;20140;-64
2024/03/22 02:06:36;;;;;;;34.42;19.17;;;12.70;99.90;;;;;;4159546;28;20477;-64
2024/03/22 02:08:40;;;;;;;31.10;18.15;;;12.70;99.90;;;;;;4148399;28;20049;-64
2024/03/22 02:10:40;;;;;;;29.77;17.38;;;12.70;99.90;;;;;;4152769;28;20039;-64
2024/03/22 02:12:41;;;;;;;30.55;18.20;;;12.70;99.90;;;;;;4157951;28;20454;-64
2024/03/22 02:14:42;;;;;;;36.58;18.63;;;12.70;99.90;;;;;;4158128;28;20397;-64
2024/03/22 02:16:43;;;;;;;28.80;17.42;;;12.70;99.90;;;;;;4158688;28;20091;-65
2024/03/22 02:18:44;;;;;;;35.20;18.65;;;12.80;99.90;;;;;;4154454;28;20083;-63
2024/03/22 02:20:45;;;;;;;30.35;18.27;;;12.70;99.90;;;;;;4173061;28;20798;-65
2024/03/22 02:22:45;;;;;;;34.17;19.80;;;12.80;99.90;;;;;;4160854;28;20045;-67
2024/03/22 02:24:46;;;;;;;28.55;17.63;;;12.80;99.90;;;;;;4160539;28;20585;-66
2024/03/22 02:26:46;;;;;;;31.10;17.27;;;12.80;99.90;;;;;;4156986;28;20059;-66
2024/03/22 02:28:47;;;;;;;33.97;19.02;;;12.80;99.90;;;;;;4159564;28;20036;-66
2024/03/22 02:30:47;;;;;;;32.08;18.58;;;12.80;99.90;;;;;;4155172;28;20482;-66
2024/03/22 02:32:48;;;;;;;33.55;19.77;;;12.80;99.90;;;;;;4158065;28;20037;-67
2024/03/22 02:34:49;;;;;;;36.42;20.05;;;12.80;99.90;;;;;;4155038;28;20485;-67
2024/03/22 02:36:49;;;;;;;33.83;20.23;;;12.70;99.90;;;;;;4158856;28;20042;-67
2024/03/22 02:38:50;;;;;;;32.90;19.13;;;12.80;99.90;;;;;;4157290;28;20179;-67
2024/03/22 02:40:52;;;;;;;33.58;19.33;;;12.80;99.90;;;;;;4159279;28;20029;-67
2024/03/22 02:42:53;;;;;;;35.35;19.40;;;12.70;99.90;;;;;;4159033;28;20033;-67
2024/03/22 02:44:53;;;;;;;37.20;20.77;;;12.80;99.90;;;;;;4153485;28;20038;-67
2024/03/22 02:46:54;;;;;;;31.38;18.17;;;12.80;99.90;;;;;;4151842;28;20426;-67
2024/03/22 02:48:55;;;;;;;36.42;20.42;;;12.80;99.90;;;;;;4156512;28;20156;-67
2024/03/22 02:50:56;;;;;;;34.30;20.67;;;12.80;99.90;;;;;;4158553;28;20486;-67
2024/03/22 02:52:56;;;;;;;34.17;20.58;;;12.80;99.90;;;;;;4160297;28;20124;-67
2024/03/22 02:54:57;;;;;;;35.42;20.90;;;12.70;99.90;;;;;;4156678;28;20048;-67
2024/03/22 02:56:58;;;;;;;36.38;19.55;;;12.80;99.90;;;;;;4157112;28;20462;-67
2024/03/22 02:58:58;;;;;;;36.00;20.27;;;12.80;99.90;;;;;;4159330;28;20040;-67
2024/03/22 03:00:59;;;;;;;32.50;19.75;;;12.80;99.90;;;;;;4158368;28;20263;-67
2024/03/22 03:02:59;;;;;;;36.03;20.77;;;12.80;99.90;;;;;;4160158;28;20045;-67
2024/03/22 03:05:00;;;;;;;36.80;20.77;;;12.80;99.90;;;;;;4157937;28;20057;-67
2024/03/22 03:07:01;;;;;;;31.63;19.55;;;12.80;99.90;;;;;;4157692;28;20124;-67
2024/03/22 03:09:01;;;;;;;32.72;19.95;;;12.80;99.90;;;;;;4159118;28;20053;-67
2024/03/22 03:11:02;;;;;;;37.25;21.15;;;12.80;99.90;;;;;;4158577;28;20060;-67
2024/03/22 03:13:03;;;;;;;37.10;21.77;;;12.80;99.90;;;;;;4160048;28;20037;-67
2024/03/22 03:15:03;;;;;;;33.00;18.98;;;12.80;99.90;;;;;;4153785;28;20034;-68
2024/03/22 03:17:04;;;;;;;37.88;22.25;;;12.80;99.90;;;;;;4159340;28;20053;-67
2024/03/22 03:19:04;;;;;;;37.53;22.27;;;12.90;99.90;;;;;;4159564;28;25440;-67
2024/03/22 03:21:05;;;;;;;34.47;20.73;;;12.80;99.90;;;;;;4157480;28;20076;-67
2024/03/22 03:23:06;;;;;;;33.15;20.20;;;12.80;99.90;;;;;;4158433;28;20038;-67
2024/03/22 03:25:07;;;;;;;32.40;19.30;;;12.80;99.90;;;;;;4157925;28;20385;-67
2024/03/22 03:27:08;;;;;;;30.75;18.73;;;12.80;99.90;;;;;;4159064;28;20440;-67
2024/03/22 03:29:08;;;;;;;31.92;19.75;;;12.80;99.90;;;;;;4154202;28;20038;-67
2024/03/22 03:31:09;;;;;;;34.40;20.05;;;12.90;99.90;;;;;;4158296;28;20505;-66
2024/03/22 03:33:09;;;;;;;35.05;21.00;;;12.90;99.90;;;;;;4160353;28;20061;-64
2024/03/22 03:35:10;;;;;;;35.55;19.80;;;12.90;99.90;;;;;;4158753;28;20038;-65
2024/03/22 03:37:11;;;;;;;36.58;20.73;;;12.80;99.90;;;;;;4158211;28;20379;-64
2024/03/22 03:39:11;;;;;;;35.33;20.63;;;12.90;99.90;;;;;;4159298;28;20080;-64
2024/03/22 03:41:12;;;;;;;37.58;22.33;;;12.80;99.90;;;;;;4156164;28;20068;-64
2024/03/22 03:43:12;;;;;;;36.15;20.80;;;12.80;99.90;;;;;;4157928;28;20041;-64
2024/03/22 03:45:13;;;;;;;36.63;22.35;;;12.80;99.90;;;;;;4158679;28;20116;-64
2024/03/22 03:47:14;;;;;;;36.90;21.83;;;12.80;99.90;;;;;;4154059;28;20081;-64
2024/03/22 03:49:14;;;;;;;35.75;21.38;;;12.80;99.90;;;;;;4159641;28;20688;-64
2024/03/22 03:51:15;;;;;;;34.92;20.88;;;12.70;99.90;;;;;;4157782;28;20037;-64
2024/03/22 03:53:15;;;;;;;33.90;20.65;;;12.80;99.90;;;;;;4158225;28;20049;-66
2024/03/22 03:55:16;;;;;;;33.20;20.90;;;12.80;99.90;;;;;;4156057;28;20436;-66
2024/03/22 03:57:17;;;;;;;35.00;20.55;;;12.80;99.90;;;;;;4157634;28;20082;-65
2024/03/22 03:59:17;;;;;;;31.10;19.85;;;12.80;99.90;;;;;;4157600;28;20068;-65
2024/03/22 04:01:18;;;;;;;34.72;20.48;;;12.70;99.90;;;;;;4156940;28;20047;-65
2024/03/22 04:03:19;;;;;;;28.25;17.65;;;12.80;99.90;;;;;;4159163;28;20068;-64
2024/03/22 04:05:20;;;;;;;30.88;18.33;;;12.80;99.90;;;;;;4158578;28;20052;-64
2024/03/22 04:07:21;;;;;;;34.00;18.55;;;12.80;99.90;;;;;;4159209;28;20037;-64
2024/03/22 04:09:22;;;;;;;30.15;18.42;;;12.80;99.90;;;;;;4158317;28;20112;-64
2024/03/22 04:11:22;;;;;;;31.05;18.42;;;12.80;99.90;;;;;;4157692;28;20121;-64
2024/03/22 04:13:27;;;;;;;33.88;20.33;;;12.70;99.90;;;;;;4158181;28;20498;-64
2024/03/22 04:15:27;;;;;;;32.28;19.83;;;12.80;99.90;;;;;;4157606;28;20536;-64
2024/03/22 04:17:28;;;;;;;33.65;19.92;;;12.80;99.90;;;;;;4158602;28;20038;-64
2024/03/22 04:19:28;;;;;;;34.40;20.60;;;12.80;99.90;;;;;;4158865;28;20486;-64
2024/03/22 04:21:29;;;;;;;31.27;19.23;;;12.70;99.90;;;;;;4157357;28;20029;-64
2024/03/22 04:23:30;;;;;;;31.35;18.85;;;12.70;99.90;;;;;;4157873;28;20121;-64
2024/03/22 04:25:30;;;;;;;32.58;19.15;;;12.70;99.90;;;;;;4151734;28;20060;-64
2024/03/22 04:27:31;;;;;;;38.10;19.83;;;12.70;99.90;;;;;;4154987;28;20168;-64
2024/03/22 04:29:31;;;;;;;31.77;19.60;;;12.70;99.90;;;;;;4155381;28;20052;-64
2024/03/22 04:31:32;;;;;;;32.75;19.90;;;12.70;99.90;;;;;;4153569;28;20049;-64
2024/03/22 04:33:33;;;;;;;31.13;18.85;;;12.70;99.90;;;;;;4158031;28;20042;-64
2024/03/22 04:35:33;;;;;;;26.88;17.20;;;12.70;99.90;;;;;;4157860;28;20033;-64
2024/03/22 04:37:34;;;;;;;31.33;18.90;;;12.70;99.90;;;;;;4158628;28;20083;-64
2024/03/22 04:39:40;;;;;;;30.20;18.10;;;12.70;99.90;;;;;;4156753;28;20072;-64
2024/03/22 04:41:40;;;;;;;27.17;16.77;;;12.70;99.90;;;;;;4154557;28;20081;-64
2024/03/22 04:43:41;;;;;;;30.40;18.60;;;12.70;99.90;;;;;;4160870;28;20033;-58
2024/03/22 04:45:42;;;;;;;25.55;16.27;;;12.70;99.90;;;;;;4161673;28;20208;-58
2024/03/22 04:47:44;;;;;;;29.83;16.98;;;12.80;99.90;;;;;;4159842;28;20497;-58
2024/03/22 04:49:44;;;;;;;27.95;17.35;;;12.80;99.90;;;;;;4156132;28;20051;-58
2024/03/22 04:51:45;;;;;;;29.10;16.50;;;12.80;99.90;;;;;;4159675;28;20124;-58
2024/03/22 04:53:46;;;;;;;30.88;17.45;;;12.80;99.90;;;;;;4161098;28;20045;-58
2024/03/22 04:55:47;;;;;;;29.38;17.23;;;12.80;99.90;;;;;;4159210;28;20030;-58
2024/03/22 04:57:47;;;;;;;30.55;18.00;;;12.80;99.90;;;;;;4161127;28;20049;-58
2024/03/22 04:59:48;;;;;;;31.50;18.50;;;12.80;99.90;;;;;;4159467;28;20079;-58
2024/03/22 05:01:49;;;;;;;25.25;15.70;;;12.80;99.90;;;;;;4155838;28;20029;-61
2024/03/22 05:03:50;;;;;;;27.60;16.73;;;12.80;99.90;;;;;;4160467;28;20469;-59
2024/03/22 05:05:50;;;;;;;26.40;15.20;;;12.80;99.90;;;;;;4160547;28;20132;-60
2024/03/22 05:07:51;;;;;;;25.52;14.80;;;12.80;99.90;;;;;;4160779;28;20033;-61
2024/03/22 05:09:52;;;;;;;25.23;16.35;;;12.80;99.90;;;;;;4156664;28;20367;-59
2024/03/22 05:11:52;;;;;;;24.33;15.52;;;12.80;99.90;;;;;;4160541;28;20041;-59
2024/03/22 05:13:53;;;;;;;24.63;14.52;;;12.80;99.90;;;;;;4161066;28;20081;-58
2024/03/22 05:15:53;;;;;;;24.70;14.85;;;12.80;99.90;;;;;;4160711;28;20464;-59
2024/03/22 05:17:58;;;;;;;30.60;16.85;;;12.80;99.90;;;;;;4157288;28;20029;-58
2024/03/22 05:19:59;;;;;;;26.80;15.38;;;12.80;99.90;;;;;;4155281;28;20124;-58
2024/03/22 05:22:00;;;;;;;29.70;17.10;;;12.80;99.90;;;;;;4160148;28;20069;-58
2024/03/22 05:24:00;;;;;;;27.10;15.73;;;12.80;99.90;;;;;;4160054;28;20449;-58
2024/03/22 05:26:01;;;;;;;26.58;16.02;;;12.80;99.90;;;;;;4156831;28;20379;-58
2024/03/22 05:28:02;;;;;;;28.50;16.92;;;12.80;99.90;;;;;;4160964;28;20033;-59
2024/03/22 05:30:06;;;;;;;24.85;15.27;;;12.80;99.90;;;;;;4161263;28;20474;-59
2024/03/22 05:32:06;;;;;;;26.73;16.10;;;12.80;99.90;;;;;;4160967;28;20092;-59
2024/03/22 05:34:07;;;;;;;25.10;15.32;;;12.80;99.90;;;;;;4160213;28;20037;-58
2024/03/22 05:36:07;;;;;;;24.45;15.30;;;12.80;99.90;;;;;;4158153;28;20058;-58
2024/03/22 05:38:08;;;;;;;21.92;15.20;;;12.90;99.90;;;;;;4158087;28;20060;-58
2024/03/22 05:40:09;;;;;;;27.52;15.10;;;12.90;99.90;;;;;;4157638;28;20071;-59
2024/03/22 05:42:10;;;;;;;29.35;16.48;;;12.80;99.90;;;;;;4160898;28;20127;-58
2024/03/22 05:44:11;;;;;;;26.25;16.33;;;12.80;99.90;;;;;;4155467;28;20045;-59
2024/03/22 05:46:12;;;;;;;23.65;14.85;;;12.80;99.90;;;;;;4156152;28;20478;-58
2024/03/22 05:48:13;;;;;;;33.80;16.55;;;12.90;99.90;;;;;;4148745;28;20038;-58
2024/03/22 05:50:14;;;;;;;28.95;16.08;;;12.80;99.90;;;;;;4158658;28;20124;-60
2024/03/22 05:52:15;;;;;;;30.70;16.92;;;12.80;99.90;;;;;;4158888;28;20049;-64
2024/03/22 05:54:16;;;;;;;24.02;15.10;;;12.80;99.90;;;;;;4160214;28;20048;-64
2024/03/22 05:56:16;;;;;;;27.73;16.00;;;12.80;99.90;;;;;;4152326;28;20045;-64
2024/03/22 05:58:17;;;;;;;25.50;15.63;;;12.80;99.90;;;;;;4157371;28;20121;-65
2024/03/22 06:00:18;;;;;;;26.17;15.63;;;12.80;99.90;;;;;;4156929;28;20107;-65
2024/03/22 06:02:19;;;;;;;26.27;15.52;;;12.80;99.90;;;;;;4155060;28;20111;-64
2024/03/22 06:04:20;;;;;;;21.45;14.43;;;12.80;99.90;;;;;;4158783;28;20053;-64
2024/03/22 06:06:24;;;;;;;24.83;14.98;;;12.80;99.90;;;;;;4159347;28;20037;-64
2024/03/22 06:08:26;;;;;;;27.60;15.18;;;12.80;99.90;;;;;;4158563;28;20095;-64
2024/03/22 06:10:26;;;;;;;25.17;15.27;;;12.80;99.90;;;;;;4154219;28;20127;-64
2024/03/22 06:12:27;;;;;;;28.40;15.30;;;12.80;99.90;;;;;;4149843;28;20037;-65
2024/03/22 06:14:28;;;;;;;23.63;14.55;;;12.80;99.90;;;;;;4155607;28;20384;-64
2024/03/22 06:16:29;;;;;;;23.15;14.48;;;12.80;99.90;;;;;;4155239;28;20054;-64
2024/03/22 06:18:29;;;;;;;25.65;15.00;;;12.80;99.90;;;;;;4154182;28;20466;-64
2024/03/22 06:20:30;;;;;;;23.65;14.77;;;12.80;99.90;;;;;;4158610;28;20033;-65
2024/03/22 06:22:31;;;;;;;26.33;15.10;;;12.80;99.90;;;;;;4146781;28;20045;-65
2024/03/22 06:24:31;;;;;;;23.70;14.07;;;12.80;99.90;;;;;;4155571;28;20026;-64
2024/03/22 06:26:32;;;;;;;23.75;14.13;;;12.80;99.90;;;;;;4154969;28;20112;-64
2024/03/22 06:28:33;;;;;;;23.92;14.25;;;12.80;99.90;;;;;;4152846;28;20052;-64
2024/03/22 06:30:33;;;;;;;24.30;14.65;;;12.90;99.90;;;;;;4155345;28;20030;-64
2024/03/22 06:32:34;;;;;;;25.45;14.52;;;12.90;99.90;;;;;;4157395;28;20413;-64
2024/03/22 06:34:34;;;;;;;22.58;14.18;;;12.90;99.90;;;;;;4154520;28;20069;-64
2024/03/22 06:36:35;;;;;;;21.13;13.82;;;12.80;99.90;;;;;;4143225;28;20056;-64
2024/03/22 06:38:36;;;;;;;19.65;12.88;;;12.90;99.90;;;;;;4150571;28;20072;-64
2024/03/22 06:40:36;;;;;;;21.08;13.93;;;12.90;99.90;;;;;;4148251;28;25404;-64
2024/03/22 06:42:37;;;;;;;24.92;14.18;;;12.90;99.90;;;;;;4150917;28;20040;-64
2024/03/22 06:44:38;;;;;;;24.58;14.80;;;12.90;99.90;;;;;;4154520;28;20042;-65
2024/03/22 06:46:39;;;;;;;23.55;13.82;;;13.00;99.90;;;;;;4154642;28;20053;-64
2024/03/22 06:48:40;;;;;;;25.75;14.38;;;13.00;99.90;;;;;;4155192;28;20161;-64
2024/03/22 06:50:41;;;;;;;23.30;13.38;;;13.00;99.90;;;;;;4152984;28;20037;-64
2024/03/22 06:52:42;;;;;;;24.23;13.73;;;13.10;99.90;;;;;;4154719;28;20102;-64
2024/03/22 06:54:42;;;;;;;24.08;14.75;;;13.10;99.90;;;;;;4156677;28;20042;-64
2024/03/22 06:56:43;;;;;;;24.17;14.13;;;13.20;99.90;;;;;;4154784;28;20049;-64
2024/03/22 06:58:44;;;;;;;25.15;14.52;;;13.30;99.90;;;;;;4148801;28;20033;-64
2024/03/22 07:00:45;;;;;;;18.52;11.95;;;13.40;99.90;;;;;;4144345;28;20163;-64
2024/03/22 07:02:45;;;;;;;22.95;13.20;;;13.50;99.90;;;;;;4157162;28;20049;-59
2024/03/22 07:04:46;;;;;;;23.75;14.25;;;13.50;99.90;;;;;;4150603;28;20041;-58
2024/03/22 07:06:47;;;;;;;21.10;12.82;;;13.60;99.90;;;;;;4152711;28;20087;-57
2024/03/22 07:08:47;;;;;;;23.92;14.32;;;13.60;99.90;;;;;;4153252;28;20053;-57
2024/03/22 07:10:48;;;;;;;22.52;13.73;;;13.60;99.90;;;;;;4153820;28;20491;-57
2024/03/22 07:12:49;;;;;;;23.52;14.05;;;13.60;99.90;;;;;;4155547;28;20123;-57
2024/03/22 07:14:49;;;;;;;21.92;12.52;;;13.60;99.90;;;;;;4156789;28;20564;-58
2024/03/22 07:16:50;;;;;;;25.17;15.05;;;13.60;99.90;;;;;;4155691;28;20045;-58
2024/03/22 07:18:51;;;;;;;23.10;13.43;;;13.60;99.90;;;;;;4153859;28;20456;-58
2024/03/22 07:20:52;;;;;;;18.08;12.05;;;13.50;99.90;;;;;;4152685;28;20107;-58
2024/03/22 07:22:53;;;;;;;16.88;11.13;;;13.60;99.90;;;;;;4169345;28;20110;-57
2024/03/22 07:24:55;;;;;;;22.27;13.40;;;13.60;99.90;;;;;;4151923;28;20037;-58
2024/03/22 07:26:55;;;;;;;18.13;11.33;;;13.60;99.90;;;;;;4154587;28;20073;-57
2024/03/22 07:28:56;;;;;;;20.23;12.35;;;13.60;99.90;;;;;;4154644;28;20277;-57
2024/03/22 07:30:56;;;;;;;20.42;11.98;;;13.60;99.90;;;;;;4154001;28;20069;-58
2024/03/22 07:32:57;;;;;;;20.95;13.15;;;13.60;99.90;;;;;;4155917;28;20041;-58
2024/03/22 07:34:58;;;;;;;21.83;11.82;;;13.60;99.90;;;;;;4154161;28;20033;-57
2024/03/22 07:36:58;;;;;;;22.35;13.48;;;13.60;99.90;;;;;;4152311;28;20097;-58
2024/03/22 07:39:00;;;;;;;20.70;12.55;;;13.60;99.90;;;;;;4153886;28;20165;-58
2024/03/22 07:41:01;;;;;;;19.33;11.90;;;13.60;99.90;;;;;;4148238;28;20049;-57
2024/03/22 07:43:06;;;;;;;16.80;10.95;;;13.60;99.90;;;;;;4156064;28;20163;-57
2024/03/22 07:45:08;;;;;;;20.02;11.63;;;13.70;99.90;;;;;;4151412;28;20061;-58
2024/03/22 07:47:09;;;;;;;17.50;11.77;;;13.70;99.90;;;;;;4151127;28;20044;-63
2024/03/22 07:49:11;;;;;;;20.20;11.55;;;13.70;99.90;;;;;;4158051;28;20038;-71
2024/03/22 07:51:12;;;;;;;17.60;11.57;;;13.70;99.90;;;;;;4151100;28;20477;-64
2024/03/22 07:53:13;;;;;;;21.90;13.15;;;13.70;99.90;;;;;;4151504;28;20127;-64
2024/03/22 07:55:14;;;;;;;19.83;10.85;;;13.70;99.90;;;;;;4148354;28;20048;-65
2024/03/22 07:57:15;;;;;;;15.65;10.45;;;13.80;99.90;;;;;;4151640;28;20144;-64
2024/03/22 07:59:16;;;;;;;17.90;11.65;;;13.80;99.90;;;;;;4151689;28;20702;-64
2024/03/22 08:01:17;;;;;;;19.10;11.52;;;13.80;99.90;;;;;;4152297;28;20045;-64
2024/03/22 08:03:18;;;;;;;17.17;11.02;;;13.90;99.90;;;;;;4153192;28;20044;-64
2024/03/22 08:05:19;;;;;;;17.35;10.85;;;13.90;99.90;;;;;;4146915;28;20058;-64
2024/03/22 08:07:20;;;;;;;18.85;10.27;;;13.90;99.90;;;;;;4153697;28;20038;-64
2024/03/22 08:09:22;;;;;;;16.48;10.73;;;13.90;99.90;;;;;;4152248;28;20059;-64
2024/03/22 08:11:22;;;;;;;16.58;10.55;;;13.90;99.90;;;;;;4151504;28;20451;-64
2024/03/22 08:13:23;;;;;;;17.33;11.25;;;13.90;99.90;;;;;;4147230;28;20041;-70
2024/03/22 08:15:24;;;;;;;17.80;11.07;;;13.90;99.90;;;;;;4152279;28;20040;-70
2024/03/22 08:17:25;;;;;;;16.88;10.85;;;13.90;99.90;;;;;;4148206;28;20048;-70
2024/03/22 08:19:26;;;;;;;19.50;10.80;;;13.90;99.90;;;;;;4150892;28;20333;-71
2024/03/22 08:21:27;;;;;;;16.20;10.50;;;13.90;99.90;;;;;;4152198;28;20482;-70
2024/03/22 08:23:28;;;;;;;18.15;11.35;;;13.90;99.90;;;;;;4151419;28;20033;-70
2024/03/22 08:25:30;;;;;;;19.73;11.23;;;13.90;99.90;;;;;;4148796;28;20042;-70
2024/03/22 08:27:31;;;;;;;20.40;11.30;;;13.90;99.90;;;;;;4148156;28;20075;-70
2024/03/22 08:29:31;;;;;;;17.58;10.73;;;13.90;99.90;;;;;;4165395;28;20635;-70
2024/03/22 08:31:32;;;;;;;17.80;10.90;;;13.90;99.90;;;;;;4152279;28;20033;-70
2024/03/22 08:33:33;;;;;;;20.17;11.98;;;13.90;99.90;;;;;;4148473;28;20060;-70
2024/03/22 08:35:34;;;;;;;18.35;11.65;;;14.00;99.90;;;;;;4176206;28;20040;-71
2024/03/22 08:37:35;;;;;;;18.05;10.95;;;14.00;99.90;;;;;;4153709;28;20434;-71
2024/03/22 08:39:36;;;;;;;19.33;12.07;;;14.00;99.90;;;;;;4154936;28;20052;-70
2024/03/22 08:41:37;;;;;;;15.55;10.50;;;14.00;99.90;;;;;;4143985;28;20034;-70
2024/03/22 08:43:38;;;;;;;16.45;10.30;;;14.00;99.90;;;;;;4152639;28;20091;-70
2024/03/22 08:45:39;;;;;;;20.02;11.90;;;14.00;99.90;;;;;;4150568;28;20383;-70
2024/03/22 08:47:40;;;;;;;16.50;10.05;;;14.00;99.90;;;;;;4151891;28;20261;-70
2024/03/22 08:49:45;;;;;;;17.70;11.45;;;14.10;99.90;;;;;;4156165;28;20037;-70
2024/03/22 08:51:48;;;;;;;21.17;12.23;;;14.10;99.90;;;;;;4149056;28;20465;-70
2024/03/22 08:53:48;;;;;;;19.73;11.98;;;14.10;99.90;;;;;;4149384;28;20054;-70
2024/03/22 08:55:49;;;;;;;17.58;10.82;;;14.10;99.90;;;;;;4147462;28;20042;-70
2024/03/22 08:57:50;;;;;;;16.13;10.35;;;14.10;99.90;;;;;;4152794;28;20595;-71
2024/03/22 08:59:51;;;;;;;18.38;11.82;;;14.20;99.90;;;;;;4153784;28;20045;-70
2024/03/22 09:01:52;;;;;;;20.45;12.32;;;14.20;99.90;;;;;;4152588;28;20447;-67
2024/03/22 09:03:52;;;;;;;21.02;11.98;;;14.30;99.90;;;;;;4144865;28;20049;-70
2024/03/22 09:05:54;;;;;;;15.32;9.18;;;14.30;99.90;;;;;;4150510;28;20053;-70
2024/03/22 09:07:56;;;;;;;14.38;9.55;;;14.50;99.90;;;;;;4149969;28;20050;-69
2024/03/22 09:09:57;;;;;;;18.33;10.15;;;14.60;99.90;;;;;;4139979;28;20491;-70
2024/03/22 09:11:58;;;;;;;15.30;9.88;;;14.70;99.90;;;;;;4143774;28;20061;-70
2024/03/22 09:13:59;;;;;;;16.30;10.07;;;14.80;99.90;;;;;;4147239;28;20123;-70
2024/03/22 09:16:00;;;;;;;14.45;9.52;;;14.90;99.90;;;;;;4147482;28;20745;-69
2024/03/22 09:18:02;;;;;;;18.00;11.18;;;15.00;99.90;;;;;;4180056;28;20116;-70
2024/03/22 09:20:04;;;;;;;15.90;9.60;;;15.00;99.90;;;;;;4148815;28;20363;-69
2024/03/22 09:22:05;;;;;;;14.80;9.20;;;15.00;99.90;;;;;;4151274;28;20038;-58
2024/03/22 09:24:06;;;;;;;15.00;8.97;;;15.10;99.90;;;;;;4154251;28;20284;-59
2024/03/22 09:26:07;;;;;;;14.35;9.13;;;15.10;99.90;;;;;;4147303;28;20042;-58
2024/03/22 09:28:08;;;;;;;14.32;9.20;;;15.10;99.90;;;;;;4156016;28;20042;-58
2024/03/22 09:30:09;;;;;;;14.10;9.15;;;15.10;99.90;;;;;;4147045;28;20175;-60
2024/03/22 09:32:10;;;;;;;11.20;7.82;;;15.10;99.90;;;;;;4153660;28;20046;-58
2024/03/22 09:34:12;;;;;;;14.68;9.10;;;15.10;99.90;;;;;;4154561;28;20301;-58
2024/03/22 09:36:13;;;;;;;14.30;8.73;;;15.10;99.90;;;;;;4153268;28;20060;-58
2024/03/22 09:38:15;;;;;;;15.88;9.25;;;15.10;99.90;;;;;;4155025;28;20038;-58
2024/03/22 09:40:16;;;;;;;15.13;7.97;;;15.10;99.90;;;;;;4153860;28;20533;-58
2024/03/22 09:42:20;;;;;;;14.88;9.25;;;15.20;99.90;;;;;;4158947;28;20509;-58
2024/03/22 09:44:22;;;;;;;16.33;9.27;;;15.20;99.90;;;;;;4154092;28;20183;-58
2024/03/22 09:46:23;;;;;;;14.85;8.90;;;15.20;99.90;;;;;;4154697;28;20207;-60
2024/03/22 09:48:23;;;;;;;15.23;9.63;;;15.20;99.90;;;;;;4155116;28;20049;-59
2024/03/22 09:50:25;;;;;;;13.93;9.10;;;15.10;99.90;;;;;;4151111;28;20034;-58
2024/03/22 09:52:27;;;;;;;15.48;8.18;;;15.10;99.90;;;;;;4158803;28;20441;-58
2024/03/22 09:54:27;;;;;;;14.98;9.48;;;15.10;99.90;;;;;;4155877;28;20493;-58
2024/03/22 09:56:31;;;;;;;13.73;8.88;;;15.10;99.90;;;;;;4156392;28;20432;-58
2024/03/22 09:58:32;;;;;;;15.43;8.40;;;15.00;99.90;;;;;;4153577;28;20132;-58
2024/03/22 10:00:33;;;;;;;13.68;8.23;;;15.00;99.90;;;;;;4142114;28;20474;-58
2024/03/22 10:02:34;;;;;;;14.40;8.82;;;15.10;99.90;;;;;;4157968;28;20198;-61
2024/03/22 10:04:35;;;;;;;14.80;9.23;;;15.10;99.90;;;;;;4155629;28;20482;-58
2024/03/22 10:06:36;;;;;;;13.40;8.73;;;15.10;99.90;;;;;;4154738;28;20029;-59
2024/03/22 10:08:38;;;;;;;15.98;8.65;;;15.10;99.90;;;;;;4155507;28;20045;-58
2024/03/22 10:10:39;;;;;;;11.43;7.68;;;15.00;99.90;;;;;;4157093;28;20037;-58
2024/03/22 10:12:40;;;;;;;14.32;8.30;;;15.00;99.90;;;;;;4155789;28;20061;-58
2024/03/22 10:14:43;;;;;;;14.60;8.93;;;15.00;99.90;;;;;;4155689;28;20064;-58